NEODyS-2

Near Earth Objects - Dynamic Site
NEODyS ∴ Observatories ∴ Site 691 ∴ Obs & residuals
Contact »
691  ▹ 
OBSERVATIONS AND RESIDUALS

691-Steward Observatory, Kitt Peak-Spacewatch

Detections | Residuals | Detections & Residuals

[1-200] [201-400] [401-600] [601-800] [801-1000] [1001-1200] [1201-1400] [1401-1600] [1601-1800] [1801-2000] [2001-2200] [2201-2400] [2401-2600] [2601-2800] [2801-3000] [3001-3200] [3201-3400] [3401-3600] [3601-3800] [3801-4000] [4001-4200] [4201-4400] [4401-4600] [4601-4800] [4801-5000] [5001-5200] [5201-5400] [5401-5600] [5601-5800] [5801-6000] [6001-6200] [6201-6400] [6401-6600] [6601-6800] [6801-7000] [7001-7200] [7201-7400] [7401-7600] [7601-7800] [7801-8000] [8001-8200] [8201-8400] [8401-8600] [8601-8800] [8801-9000] [9001-9200] [9201-9400] [9401-9600] [9601-9800] [9801-10000] [10001-10200] [10201-10400] [10401-10600] [10601-10800] [10801-11000] [11001-11200] [11201-11400] [11401-11600] [11601-11800] [11801-12000] [12001-12200] [12201-12400] [12401-12600] [12601-12800] [12801-13000] [13001-13200] [13201-13400] [13401-13600] [13601-13800] [13801-14000] [14001-14200] [14201-14400] [14401-14600] [14601-14800] [14801-15000] [15001-15200] [15201-15400] [15401-15600] [15601-15800] [15801-16000] [16001-16200] [16201-16400] [16401-16600] [16601-16800] [16801-17000] [17001-17200] [17201-17400] [17401-17600] [17601-17800] [17801-18000] [18001-18200] [18201-18400] [18401-18600] [18601-18800] [18801-19000] [19001-19200] [19201-19400] [19401-19600] [19601-19800] [19801-20000] [20001-20200] [20201-20400] [20401-20600] [20601-20800] [20801-21000] [21001-21200] [21201-21400] [21401-21600] [21601-21800] [21801-22000] [22001-22200] [22201-22400] [22401-22600] [22601-22800] [22801-23000] [23001-23200] [23201-23400] [23401-23600] [23601-23800] [23801-24000] [24001-24200] [24201-24400] [24401-24600] [24601-24800] [24801-25000] [25001-25200] [25201-25400] [25401-25600] [25601-25800] [25801-26000] [26001-26200] [26201-26400] [26401-26600] [26601-26800] [26801-27000] [27001-27200] [27201-27400] [27401-27600] [27601-27800] [27801-28000] [28001-28200] [28201-28400] [28401-28600] [28601-28800] [28801-29000] [29001-29200] [29201-29400] [29401-29600] [29601-29800] [29801-30000] [30001-30200] [30201-30400] [30401-30600] [30601-30800] [30801-31000] [31001-31200] [31201-31400] [31401-31600] [31601-31800] [31801-32000] [32001-32200] [32201-32400] [32401-32600] [32601-32800] [32801-33000] [33001-33200] [33201-33400] [33401-33600] [33601-33800] [33801-34000] [34001-34200] [34201-34400] [34401-34600] [34601-34800] [34801-35000] [35001-35200] [35201-35400] [35401-35600] [35601-35800] [35801-36000] [36001-36200] [36201-36400] [36401-36600] [36601-36800] [36801-37000] [37001-37200] [37201-37400] [37401-37600] [37601-37800] [37801-38000] [38001-38200] [38201-38400] [38401-38600] [38601-38800] [38801-39000] [39001-39200] [39201-39400] [39401-39600] [39601-39800] [39801-40000] [40001-40200] [40201-40400] [40401-40600] [40601-40800] [40801-41000] [41001-41200] [41201-41400] [41401-41600] [41601-41800] [41801-42000] [42001-42200] [42201-42400] [42401-42600] [42601-42800] [42801-43000] [43001-43200] [43201-43400] [43401-43600] [43601-43800] [43801-44000] [44001-44200] [44201-44400] [44401-44600] [44601-44800] [44801-45000] [45001-45200] [45201-45400] [45401-45600] [45601-45800] [45801-46000] [46001-46200] [46201-46400] [46401-46600] [46601-46800] [46801-47000] [47001-47200] [47201-47400] [47401-47600] [47601-47800] [47801-48000] [48001-48200] [48201-48400] [48401-48600] [48601-48800] [48801-49000] [49001-49200] [49201-49400] [49401-49600] [49601-49800] [49801-50000] [50001-50200] [50201-50388]

Designation T Tech N Date Right Ascension Declination Apparent Magnitude Star Catalog Site code χ Used A Used M
yr-mo-day precision hr:min:sec precision rms F bias residual deg min sec precision rms F bias residual mag/col rms residual
2002CE26 O C 2012-02-24.25063 1.000E-05 11:31:58.020 1.500E-01 0.500 F 0.197 -0.322 +07° 49' 05.90" 1.000E-01 0.500 F 0.183 -0.125 19.8 V 0.70 -0.13 o 691 0.69 Yes Yes
2002CE26 O C 2012-02-24.26859 1.000E-05 11:31:56.730 1.500E-01 0.500 F 0.197 -0.094 +07° 49' 30.00" 1.000E-01 0.500 F 0.183 -0.169 20.5 V 0.70 0.57 o 691 0.39 Yes Yes
2003EG O C 2012-02-24.34033 1.000E-05 12:24:09.740 1.500E-01 0.500 F 0.126 -0.190 +04° 50' 20.90" 1.000E-01 0.500 F 0.220 0.100 20.4 V 0.70 0.37 o 691 0.43 Yes Yes
2003EG O C 2012-02-24.35830 1.000E-05 12:24:08.250 1.500E-01 0.500 F 0.126 -0.192 +04° 50' 24.00" 1.000E-01 0.500 F 0.220 -0.036 20.1 V 0.70 0.07 o 691 0.39 Yes Yes
2003EG O C 2012-02-24.37626 1.000E-05 12:24:06.760 1.500E-01 0.500 F 0.126 -0.176 +04° 50' 27.30" 1.000E-01 0.500 F 0.220 0.033 20.2 V 0.70 0.17 o 691 0.36 Yes Yes
2010RJ42 O C 2012-02-24.40883 1.000E-05 12:26:22.740 1.500E-01 0.500 F 0.054 0.138 -09° 33' 48.50" 1.000E-01 0.500 F -0.111 0.060 19.1 V 0.70 0.02 o 691 0.31 Yes Yes
2010RJ42 O C 2012-02-24.42679 1.000E-05 12:26:19.750 1.500E-01 0.500 F 0.054 -1.233 -09° 35' 20.20" 1.000E-01 0.500 F -0.111 -0.225 18.7 V 0.70 -0.38 o 691 2.62 Yes Yes
2010RJ42 O C 2012-02-24.44474 1.000E-05 12:26:16.950 1.500E-01 0.500 F 0.054 0.193 -09° 36' 51.40" 1.000E-01 0.500 F -0.111 -0.049 19.1 V 0.70 0.02 o 691 0.42 Yes Yes
2012DJ4 O C H 2012-02-25.14713 1.000E-05 10:23:45.940 1.500E-01 0.500 F 0.085 -0.686 +09° 55' 25.90" 1.000E-01 0.500 F 0.182 -0.908 o 691 2.29 Yes No
2012DJ4 O C H 2012-02-25.16506 1.000E-05 10:23:44.790 1.500E-01 0.500 F 0.085 0.333 +09° 55' 46.10" 1.000E-01 0.500 F 0.182 -0.445 o 691 1.12 Yes No
2009CT5 O C H 2012-02-25.17023 1.000E-05 10:18:03.000 1.500E-01 0.500 F 0.137 -0.879 +07° 33' 00.00" 1.000E-01 0.500 F 0.141 -0.699 o 691 2.27 Yes No
2012DJ4 O C H 2012-02-25.18300 1.000E-05 10:23:43.550 1.500E-01 0.500 F 0.085 0.159 +09° 56' 06.10" 1.000E-01 0.500 F 0.182 -0.169 o 691 0.47 Yes No
2009CT5 O C H 2012-02-25.18817 1.000E-05 10:18:00.750 1.500E-01 0.500 F 0.137 -0.803 +07° 33' 17.50" 1.000E-01 0.500 F 0.141 -0.204 o 691 1.68 Yes No
2012DV32 O C 2012-02-25.20548 1.000E-05 11:43:08.690 1.500E-01 0.500 F 0.273 -0.353 +06° 31' 53.00" 1.000E-01 0.500 F 0.312 -0.127 19.7 V 0.70 0.23 o 691 0.76 Yes Yes
2012DV32 O C 2012-02-25.22341 1.000E-05 11:43:09.950 1.500E-01 0.500 F 0.273 -0.574 +06° 33' 08.20" 1.000E-01 0.500 F 0.312 0.040 19.7 V 0.70 0.23 o 691 1.16 Yes Yes
2012DV32 O C 2012-02-25.24134 1.000E-05 11:43:11.240 1.500E-01 0.500 F 0.273 0.043 +06° 34' 22.90" 1.000E-01 0.500 F 0.312 -0.258 19.5 V 0.70 0.03 o 691 0.53 Yes Yes
Verenia O C H 2012-02-25.26637 1.000E-05 11:51:16.500 1.500E-01 0.500 F 0.174 0.390 +00° 07' 55.80" 1.000E-01 0.500 F 0.134 -0.607 o 691 1.45 Yes No
Verenia O C H 2012-02-25.28430 1.000E-05 11:51:15.520 1.500E-01 0.500 F 0.174 0.332 +00° 08' 04.20" 1.000E-01 0.500 F 0.134 -0.614 o 691 1.40 Yes No
Verenia O C H 2012-02-25.30224 1.000E-05 11:51:14.520 1.500E-01 0.500 F 0.174 0.011 +00° 08' 12.80" 1.000E-01 0.500 F 0.134 -0.427 o 691 0.86 Yes No
1994CN2 O C 2012-02-25.32133 1.000E-05 12:32:09.500 1.500E-01 0.500 F 0.213 -0.129 -00° 53' 45.00" 1.000E-01 0.500 F 0.218 -0.053 20.1 V 0.70 0.30 o 691 0.28 Yes Yes
2002CW46 O C 2012-02-25.32664 1.000E-05 12:17:24.660 1.500E-01 0.500 F 0.207 -0.190 -03° 47' 47.40" 1.000E-01 0.500 F 0.103 0.030 20.7 V 0.70 -0.28 o 691 0.39 Yes Yes
1994CN2 O C 2012-02-25.33926 1.000E-05 12:32:08.470 1.500E-01 0.500 F 0.213 -0.307 -00° 53' 37.00" 1.000E-01 0.500 F 0.218 0.504 20.1 V 0.70 0.30 o 691 1.18 Yes Yes
2002CW46 O C 2012-02-25.34458 1.000E-05 12:17:23.110 1.500E-01 0.500 F 0.207 -0.258 -03° 47' 48.80" 1.000E-01 0.500 F 0.103 0.055 20.9 V 0.70 -0.08 o 691 0.53 Yes Yes
1994CN2 O C 2012-02-25.35720 1.000E-05 12:32:07.430 1.500E-01 0.500 F 0.213 -0.586 -00° 53' 29.50" 1.000E-01 0.500 F 0.218 0.551 20.0 V 0.70 0.20 o 691 1.61 Yes Yes
2002CW46 O C 2012-02-25.36251 1.000E-05 12:17:21.520 1.500E-01 0.500 F 0.207 -0.897 -03° 47' 50.30" 1.000E-01 0.500 F 0.103 -0.032 20.7 V 0.70 -0.27 o 691 1.80 Yes Yes
2006EV52 O C 2012-02-25.43497 1.000E-05 13:19:33.880 1.500E-01 0.500 F 0.185 -0.974 -01° 34' 34.80" 1.000E-01 0.500 F 0.084 0.185 20.8 V 0.70 -0.11 o 691 1.99 Yes Yes
2006EV52 O C 2012-02-25.45291 1.000E-05 13:19:33.390 1.500E-01 0.500 F 0.185 -0.919 -01° 34' 25.30" 1.000E-01 0.500 F 0.084 0.211 20.7 V 0.70 -0.21 o 691 1.89 Yes Yes
2006EV52 O C 2012-02-25.47086 1.000E-05 13:19:32.930 1.500E-01 0.500 F 0.185 -0.406 -01° 34' 15.90" 1.000E-01 0.500 F 0.084 0.125 20.8 V 0.70 -0.11 o 691 0.85 Yes Yes
2002GB O C 2012-02-25.49879 1.000E-05 16:46:07.120 1.500E-01 0.500 F 0.178 -0.397 +03° 53' 24.20" 1.000E-01 0.500 F 0.212 0.028 20.1 V 0.70 -0.31 o 691 0.79 Yes Yes
2003NO4 O C H 2012-02-25.50127 1.000E-05 16:51:57.610 1.500E-01 0.500 F 0.092 0.334 +04° 14' 25.80" 1.000E-01 0.500 F 0.168 -0.541 o 691 1.28 Yes No
2002GB O C 2012-02-25.51169 1.000E-05 16:46:06.760 1.500E-01 0.500 F 0.178 -0.114 +03° 53' 21.70" 1.000E-01 0.500 F 0.212 0.053 20.0 V 0.70 -0.41 o 691 0.24 Yes Yes
2003NO4 O C H 2012-02-25.51417 1.000E-05 16:51:59.570 1.500E-01 0.500 F 0.092 -0.219 +04° 14' 31.90" 1.000E-01 0.500 F 0.168 -0.648 o 691 1.37 Yes No
2002GB O C 2012-02-25.52458 1.000E-05 16:46:06.350 1.500E-01 0.500 F 0.178 -0.543 +03° 53' 19.00" 1.000E-01 0.500 F 0.212 -0.119 20.1 V 0.70 -0.31 o 691 1.11 Yes Yes
2003NO4 O C H 2012-02-25.52706 1.000E-05 16:52:01.590 1.500E-01 0.500 F 0.092 0.163 +04° 14' 38.30" 1.000E-01 0.500 F 0.168 -0.449 o 691 0.96 Yes No
Rhiannon O C 2012-02-26.30662 1.000E-05 12:32:48.400 1.500E-01 0.500 F 0.318 -0.085 +00° 10' 19.60" 1.000E-01 0.500 F 0.273 -0.071 20.4 V 0.70 -0.21 o 691 0.22 Yes Yes
Rhiannon O C 2012-02-26.32455 1.000E-05 12:32:47.580 1.500E-01 0.500 F 0.318 -0.035 +00° 10' 41.50" 1.000E-01 0.500 F 0.273 0.485 20.1 V 0.70 -0.51 o 691 0.97 Yes Yes
Rhiannon O C 2012-02-26.34249 1.000E-05 12:32:46.720 1.500E-01 0.500 F 0.318 -0.531 +00° 11' 02.50" 1.000E-01 0.500 F 0.273 0.123 20.2 V 0.70 -0.41 o 691 1.09 Yes Yes
2012DO8 O C H 2012-02-26.35845 1.000E-05 12:49:19.160 1.500E-01 0.500 F 0.130 -0.560 -01° 24' 23.10" 1.000E-01 0.500 F 0.133 -0.455 o 691 1.46 Yes No
2012DO8 O C H 2012-02-26.37638 1.000E-05 12:49:15.770 1.500E-01 0.500 F 0.130 -0.803 -01° 24' 37.70" 1.000E-01 0.500 F 0.133 -0.816 o 691 2.32 Yes No
2012DO8 O C H 2012-02-26.39433 1.000E-05 12:49:12.430 1.500E-01 0.500 F 0.130 -0.093 -01° 24' 52.20" 1.000E-01 0.500 F 0.133 -1.070 o 691 2.17 Yes No
2007UR3 O C H 2012-02-26.41959 1.000E-05 13:10:40.640 1.500E-01 0.500 F 0.145 0.206 -06° 28' 00.50" 1.000E-01 0.500 F 0.138 -0.542 o 691 1.17 Yes No
2007UR3 O C H 2012-02-26.43754 1.000E-05 13:10:40.230 1.500E-01 0.500 F 0.145 0.186 -06° 27' 53.80" 1.000E-01 0.500 F 0.138 -0.387 o 691 0.86 Yes No
2000NG11 O C H 2012-02-26.44003 1.000E-05 13:20:21.010 1.500E-01 0.500 F 0.138 -0.072 -07° 26' 08.20" 1.000E-01 0.500 F -0.008 -0.596 o 691 1.20 Yes No
2007UR3 O C H 2012-02-26.45548 1.000E-05 13:10:39.820 1.500E-01 0.500 F 0.145 0.161 -06° 27' 47.40" 1.000E-01 0.500 F 0.138 -0.572 o 691 1.20 Yes No
2000NG11 O C H 2012-02-26.45797 1.000E-05 13:20:20.420 1.500E-01 0.500 F 0.138 0.031 -07° 26' 04.20" 1.000E-01 0.500 F -0.008 -0.186 o 691 0.38 Yes No
2003NO4 O C H 2012-02-26.47554 1.000E-05 16:54:30.630 1.500E-01 0.500 F 0.094 0.426 +04° 22' 18.50" 1.000E-01 0.500 F 0.188 -0.796 o 691 1.81 Yes No
2003NO4 O C H 2012-02-26.48844 1.000E-05 16:54:32.610 1.500E-01 0.500 F 0.094 0.097 +04° 22' 25.00" 1.000E-01 0.500 F 0.188 -0.653 o 691 1.32 Yes No
2003NO4 O C H 2012-02-26.50133 1.000E-05 16:54:34.570 1.500E-01 0.500 F 0.094 -0.488 +04° 22' 31.90" 1.000E-01 0.500 F 0.188 -0.105 o 691 1.00 Yes No
2001SW169 O C 2012-02-27.10704 1.000E-05 09:37:16.020 1.500E-01 0.500 F -0.038 -0.313 +22° 58' 29.70" 1.000E-01 0.500 F 0.255 -0.072 18.5 V 0.70 0.35 o 691 0.64 Yes Yes
2001SW169 O C 2012-02-27.12098 1.000E-05 09:37:14.330 1.500E-01 0.500 F -0.038 -0.269 +22° 58' 29.30" 1.000E-01 0.500 F 0.255 0.056 18.4 V 0.70 0.25 o 691 0.55 Yes Yes
2001SW169 O C 2012-02-27.14548 1.000E-05 09:37:11.320 1.500E-01 0.500 F -0.038 -0.404 +22° 58' 28.30" 1.000E-01 0.500 F 0.255 0.097 18.4 V 0.70 0.25 o 691 0.83 Yes Yes
2012DL14 O C 2012-02-27.15904 1.000E-05 10:04:40.360 1.500E-01 0.500 F 0.078 0.234 +13° 18' 20.60" 1.000E-01 0.500 F 0.279 -0.051 20.8 V 0.70 -0.22 o 691 0.55 Yes Yes
1999FP59 O C 2012-02-27.16153 1.000E-05 10:11:16.330 1.500E-01 0.500 F 0.023 -0.599 +13° 44' 58.20" 1.000E-01 0.500 F 0.162 -0.325 20.5 V 0.70 0.11 o 691 1.36 Yes Yes
2012DL14 O C 2012-02-27.17781 1.000E-05 10:04:39.890 1.500E-01 0.500 F 0.078 -0.289 +13° 17' 52.00" 1.000E-01 0.500 F 0.279 0.184 20.7 V 0.70 -0.32 o 691 0.80 Yes Yes
1999FP59 O C 2012-02-27.18030 1.000E-05 10:11:14.740 1.500E-01 0.500 F 0.023 -0.346 +13° 45' 06.40" 1.000E-01 0.500 F 0.162 0.052 20.3 V 0.70 -0.09 o 691 0.70 Yes Yes
2012DL14 O C 2012-02-27.19321 1.000E-05 10:04:39.510 1.500E-01 0.500 F 0.078 -0.328 +13° 17' 28.00" 1.000E-01 0.500 F 0.279 -0.082 20.9 V 0.70 -0.12 o 691 0.79 Yes Yes
1999FP59 O C 2012-02-27.19569 1.000E-05 10:11:13.400 1.500E-01 0.500 F 0.023 -0.622 +13° 45' 12.40" 1.000E-01 0.500 F 0.162 -0.349 20.7 V 0.70 0.31 o 691 1.43 Yes Yes
2002CE26 O C 2012-02-27.21905 1.000E-05 11:28:24.300 1.500E-01 0.500 F 0.278 0.051 +08° 55' 17.70" 1.000E-01 0.500 F 0.045 0.244 20.5 V 0.70 0.62 o 691 0.50 Yes Yes
2002CE26 O C 2012-02-27.23912 1.000E-05 11:28:22.790 1.500E-01 0.500 F 0.278 -0.248 +08° 55' 44.40" 1.000E-01 0.500 F 0.045 0.141 19.6 V 0.70 -0.28 o 691 0.57 Yes Yes
2002CE26 O C 2012-02-27.25454 1.000E-05 11:28:21.630 1.500E-01 0.500 F 0.278 -0.440 +08° 56' 05.00" 1.000E-01 0.500 F 0.045 0.156 19.7 V 0.70 -0.18 o 691 0.94 Yes Yes
2001AD2 O C 2012-02-27.33727 1.000E-05 12:23:51.970 1.500E-01 0.500 F 0.142 -0.393 -06° 07' 48.40" 1.000E-01 0.500 F 0.015 0.158 20.3 V 0.70 0.25 o 691 0.85 Yes Yes
2001AD2 O C 2012-02-27.35522 1.000E-05 12:23:49.910 1.500E-01 0.500 F 0.142 -0.091 -06° 07' 38.60" 1.000E-01 0.500 F 0.015 0.126 20.1 V 0.70 0.06 o 691 0.31 Yes Yes
2001AD2 O C 2012-02-27.37317 1.000E-05 12:23:47.800 1.500E-01 0.500 F 0.142 -0.453 -06° 07' 28.70" 1.000E-01 0.500 F 0.015 0.159 20.1 V 0.70 0.06 o 691 0.96 Yes Yes
2004QZ2 O C 2012-02-27.38962 1.000E-05 12:44:24.110 1.500E-01 0.500 F 0.216 -0.498 -06° 04' 11.60" 1.000E-01 0.500 F 0.123 0.038 20.8 V 0.70 0.10 o 691 1.00 Yes Yes
2004QZ2 O C 2012-02-27.40757 1.000E-05 12:44:22.990 1.500E-01 0.500 F 0.216 -0.712 -06° 04' 04.30" 1.000E-01 0.500 F 0.123 0.514 21.1 V 0.70 0.40 o 691 1.76 Yes Yes
2004QZ2 O C 2012-02-27.42554 1.000E-05 12:44:21.880 1.500E-01 0.500 F 0.216 -0.751 -06° 03' 58.10" 1.000E-01 0.500 F 0.123 -0.132 20.5 V 0.70 -0.20 o 691 1.53 Yes Yes
1998WP5 O C 2012-02-27.49659 1.000E-05 16:24:28.380 1.500E-01 0.500 F 0.109 -0.199 -00° 03' 51.30" 1.000E-01 0.500 F 0.301 -0.081 20.0 V 0.70 -0.11 o 691 0.43 Yes Yes
1998WP5 O C 2012-02-27.51152 1.000E-05 16:24:29.790 1.500E-01 0.500 F 0.109 -0.252 -00° 04' 13.50" 1.000E-01 0.500 F 0.301 -0.155 20.1 V 0.70 -0.01 o 691 0.59 Yes Yes
1998WP5 O C 2012-02-27.52420 1.000E-05 16:24:31.010 1.500E-01 0.500 F 0.109 0.072 -00° 04' 31.60" 1.000E-01 0.500 F 0.301 0.539 20.0 V 0.70 -0.11 o 691 1.09 Yes Yes
1995EK1 O C 2012-02-29.22595 1.000E-05 11:37:00.450 1.500E-01 0.500 F 0.151 -0.468 +06° 37' 01.40" 1.000E-01 0.500 F 0.269 0.073 18.8 V 0.70 0.49 o 691 0.95 Yes Yes
1995EK1 O C 2012-02-29.24155 1.000E-05 11:36:58.640 1.500E-01 0.500 F 0.151 -0.220 +06° 37' 08.70" 1.000E-01 0.500 F 0.269 -0.049 18.8 V 0.70 0.49 o 691 0.45 Yes Yes
1995EK1 O C 2012-02-29.25747 1.000E-05 11:36:56.760 1.500E-01 0.500 F 0.151 -0.370 +06° 37' 16.30" 1.000E-01 0.500 F 0.269 -0.019 18.6 V 0.70 0.29 o 691 0.74 Yes Yes
2003DE6 O C H 2012-02-29.49337 1.000E-05 16:22:00.550 1.500E-01 0.500 F 0.038 0.413 +01° 49' 17.50" 1.000E-01 0.500 F 0.279 -0.033 o 691 0.85 Yes No
2003DE6 O C H 2012-02-29.50833 1.000E-05 16:22:04.570 1.500E-01 0.500 F 0.038 0.125 +01° 49' 44.80" 1.000E-01 0.500 F 0.279 -0.477 o 691 0.99 Yes No
2003DE6 O C H 2012-02-29.52121 1.000E-05 16:22:07.900 1.500E-01 0.500 F 0.038 -2.064 +01° 50' 08.10" 1.000E-01 0.500 F 0.279 -1.066 o 691 4.46 No No
2012DK61 O C 2012-03-01.21496 1.000E-05 11:35:05.060 1.500E-01 0.500 F 0.256 -0.881 -01° 15' 38.20" 1.000E-01 0.500 F -0.010 -0.274 20.2 V 0.70 0.46 o 691 1.86 Yes Yes
2012DK61 O C 2012-03-01.23263 1.000E-05 11:35:02.900 1.500E-01 0.500 F 0.256 -0.763 -01° 15' 48.10" 1.000E-01 0.500 F -0.010 -0.275 20.0 V 0.70 0.26 o 691 1.63 Yes Yes
2012DK61 O C 2012-03-01.25028 1.000E-05 11:35:00.690 1.500E-01 0.500 F 0.256 -1.210 -01° 15' 57.70" 1.000E-01 0.500 F -0.010 0.007 20.3 V 0.70 0.57 o 691 2.43 Yes Yes
2003EG O C 2012-03-01.27661 1.000E-05 12:15:23.160 1.500E-01 0.500 F 0.171 -1.091 +05° 09' 42.80" 1.000E-01 0.500 F 0.223 0.007 19.8 V 0.70 0.02 o 691 2.18 Yes Yes
2003EG O C 2012-03-01.29428 1.000E-05 12:15:21.470 1.500E-01 0.500 F 0.171 -0.404 +05° 09' 46.60" 1.000E-01 0.500 F 0.223 0.060 20.2 V 0.70 0.43 o 691 0.82 Yes Yes
2003EG O C 2012-03-01.31197 1.000E-05 12:15:19.720 1.500E-01 0.500 F 0.171 -0.539 +05° 09' 50.00" 1.000E-01 0.500 F 0.223 -0.287 20.1 V 0.70 0.33 o 691 1.22 Yes Yes
Rhiannon O C 2012-03-01.33826 1.000E-05 12:29:37.820 1.500E-01 0.500 F 0.228 -0.696 +01° 32' 21.30" 1.000E-01 0.500 F 0.210 0.472 20.4 V 0.70 -0.11 o 691 1.69 Yes Yes
Rhiannon O C 2012-03-01.35594 1.000E-05 12:29:36.840 1.500E-01 0.500 F 0.228 -1.236 +01° 32' 42.70" 1.000E-01 0.500 F 0.210 -0.206 20.7 V 0.70 0.19 o 691 2.51 Yes Yes
Rhiannon O C 2012-03-01.37360 1.000E-05 12:29:35.930 1.500E-01 0.500 F 0.228 -0.719 +01° 33' 05.40" 1.000E-01 0.500 F 0.210 0.439 20.4 V 0.70 -0.11 o 691 1.69 Yes Yes
2007UR3 O C 2012-03-01.44885 1.000E-05 13:09:18.490 1.500E-01 0.500 F 0.145 -0.514 -06° 00' 27.60" 1.000E-01 0.500 F 0.138 -0.033 20.3 V 0.70 -0.03 o 691 1.04 Yes Yes
2007UR3 O C 2012-03-01.46652 1.000E-05 13:09:17.830 1.500E-01 0.500 F 0.145 -0.272 -06° 00' 19.30" 1.000E-01 0.500 F 0.138 0.165 20.4 V 0.70 0.07 o 691 0.64 Yes Yes
2007UR3 O C 2012-03-01.48419 1.000E-05 13:09:17.170 1.500E-01 0.500 F 0.145 -0.111 -06° 00' 11.30" 1.000E-01 0.500 F 0.138 0.026 20.2 V 0.70 -0.13 o 691 0.23 Yes Yes
2002GB O C H 2012-03-01.50141 1.000E-05 16:43:28.640 1.500E-01 0.500 F 0.149 0.166 +03° 37' 30.40" 1.000E-01 0.500 F 0.180 -0.677 o 691 1.40 Yes No
2002GB O C H 2012-03-01.51406 1.000E-05 16:43:28.020 1.500E-01 0.500 F 0.149 -0.722 +03° 37' 28.10" 1.000E-01 0.500 F 0.180 -0.678 o 691 1.98 Yes No
2002GB O C H 2012-03-01.52671 1.000E-05 16:43:27.510 1.500E-01 0.500 F 0.149 0.069 +03° 37' 25.30" 1.000E-01 0.500 F 0.180 -1.176 o 691 2.36 Yes No
1999FP59 O C H 2012-03-02.22735 1.000E-05 10:05:40.790 1.500E-01 0.500 F 0.078 -1.246 +14° 11' 41.70" 1.000E-01 0.500 F 0.179 -1.411 20.6 V 0.70 0.07 o 691 3.76 No Yes
1999FP59 O C H 2012-03-02.23284 1.000E-05 10:05:40.400 1.500E-01 0.500 F 0.078 -0.244 +14° 11' 44.90" 1.000E-01 0.500 F 0.179 -0.304 20.9 V 0.70 0.37 o 691 0.78 Yes Yes
2001WN5 O C H 2012-03-02.30467 1.000E-05 11:31:58.250 1.500E-01 0.500 F 0.246 -0.175 -00° 25' 10.50" 1.000E-01 0.500 F -0.039 -1.137 o 691 2.30 Yes No
2012DK61 O C 2012-03-02.31573 1.000E-05 11:32:54.380 1.500E-01 0.500 F 0.256 -0.149 -01° 25' 50.60" 1.000E-01 0.500 F 0.058 -0.124 19.7 V 0.70 0.04 o 691 0.39 Yes Yes
2001WN5 O C H 2012-03-02.32400 1.000E-05 11:31:56.730 1.500E-01 0.500 F 0.246 0.405 -00° 25' 01.40" 1.000E-01 0.500 F -0.039 -0.708 o 691 1.63 Yes No
2012DK61 O C 2012-03-02.33507 1.000E-05 11:32:51.860 1.500E-01 0.500 F 0.256 -0.084 -01° 26' 01.30" 1.000E-01 0.500 F 0.058 -0.080 19.7 V 0.70 0.04 o 691 0.24 Yes Yes
2001WN5 O C H 2012-03-02.34334 1.000E-05 11:31:55.100 1.500E-01 0.500 F 0.246 -0.635 -00° 24' 52.10" 1.000E-01 0.500 F -0.039 -0.089 o 691 1.28 Yes No
2012DK61 O C 2012-03-02.35441 1.000E-05 11:32:49.330 1.500E-01 0.500 F 0.256 -0.120 -01° 26' 12.10" 1.000E-01 0.500 F 0.058 -0.147 19.7 V 0.70 0.04 o 691 0.38 Yes Yes
2001AD2 O C H 2012-03-02.38385 1.000E-05 12:15:22.240 1.500E-01 0.500 F 0.178 -0.651 -05° 23' 49.30" 1.000E-01 0.500 F 0.102 -0.058 20.1 V 0.70 0.42 o 691 1.31 Yes Yes
2001AD2 O C H 2012-03-02.40048 1.000E-05 12:15:19.800 1.500E-01 0.500 F 0.178 0.081 -05° 23' 36.70" 1.000E-01 0.500 F 0.102 -0.140 20.1 V 0.70 0.42 o 691 0.32 Yes Yes
2004QZ2 O C H 2012-03-02.43754 1.000E-05 12:40:12.460 1.500E-01 0.500 F 0.229 -0.180 -05° 36' 54.90" 1.000E-01 0.500 F 0.143 -0.760 o 691 1.56 Yes No
2004QZ2 O C H 2012-03-02.45686 1.000E-05 12:40:11.200 1.500E-01 0.500 F 0.229 0.593 -05° 36' 45.90" 1.000E-01 0.500 F 0.143 -0.048 o 691 1.19 Yes No
2004QZ2 O C H 2012-03-02.47620 1.000E-05 12:40:09.810 1.500E-01 0.500 F 0.229 -0.586 -05° 36' 38.40" 1.000E-01 0.500 F 0.143 -0.857 o 691 2.08 Yes No
1998KN3 O C 2012-03-02.49681 1.000E-05 12:47:59.350 1.500E-01 0.500 F 0.210 0.119 -09° 44' 44.60" 1.000E-01 0.500 F 0.075 0.193 19.2 V 0.70 0.52 o 691 0.45 Yes Yes
1998KN3 O C 2012-03-02.51621 1.000E-05 12:47:52.710 1.500E-01 0.500 F 0.210 0.138 -09° 44' 05.30" 1.000E-01 0.500 F 0.075 -0.197 19.4 V 0.70 0.72 o 691 0.48 Yes Yes
1998KN3 O C 2012-03-02.53560 1.000E-05 12:47:46.100 1.500E-01 0.500 F 0.210 0.358 -09° 43' 25.70" 1.000E-01 0.500 F 0.075 -0.294 19.4 V 0.70 0.72 o 691 0.93 Yes Yes
1994RH O C 2012-03-03.11520 1.000E-05 08:04:28.770 1.500E-01 0.500 F 0.007 -0.161 +26° 33' 25.80" 1.000E-01 0.500 F 0.242 -0.004 18.1 V 0.70 0.43 o 691 0.32 Yes Yes
1994RH O C 2012-03-03.13686 1.000E-05 08:04:28.970 1.500E-01 0.500 F 0.007 -0.674 +26° 32' 55.80" 1.000E-01 0.500 F 0.242 1.000 17.7 V 0.70 0.03 o 691 2.42 Yes Yes
1994RH O C 2012-03-03.14918 1.000E-05 08:04:29.150 1.500E-01 0.500 F 0.007 -0.054 +26° 32' 37.20" 1.000E-01 0.500 F 0.242 0.061 18.0 V 0.70 0.33 o 691 0.16 Yes Yes
2002CW46 O C H 2012-03-03.35357 1.000E-05 12:06:59.650 1.500E-01 0.500 F 0.245 -0.620 -03° 52' 01.60" 1.000E-01 0.500 F 0.088 -0.731 o 691 1.92 Yes No
2001AD2 O C 2012-03-03.36454 1.000E-05 12:12:58.070 1.500E-01 0.500 F 0.251 -0.432 -05° 10' 54.90" 1.000E-01 0.500 F 0.091 0.095 19.8 V 0.70 0.22 o 691 0.89 Yes Yes
2002CW46 O C H 2012-03-03.37010 1.000E-05 12:06:58.100 1.500E-01 0.500 F 0.245 0.225 -03° 52' 01.40" 1.000E-01 0.500 F 0.088 -0.598 o 691 1.28 Yes No
2001AD2 O C 2012-03-03.38455 1.000E-05 12:12:54.920 1.500E-01 0.500 F 0.251 -0.056 -05° 10' 38.80" 1.000E-01 0.500 F 0.091 -0.198 19.9 V 0.70 0.32 o 691 0.41 Yes Yes
2002CW46 O C H 2012-03-03.39012 1.000E-05 12:06:56.080 1.500E-01 0.500 F 0.248 -0.889 -03° 52' 00.40" 1.000E-01 0.500 F 0.093 0.304 o 691 1.89 Yes No
2001AD2 O C 2012-03-03.40110 1.000E-05 12:12:52.290 1.500E-01 0.500 F 0.251 -0.086 -05° 10' 24.80" 1.000E-01 0.500 F 0.091 0.206 19.7 V 0.70 0.12 o 691 0.45 Yes Yes
Lyapunov O C 2012-03-03.40835 1.000E-05 12:24:20.190 1.500E-01 0.500 F 0.167 -0.683 -06° 40' 55.00" 1.000E-01 0.500 F -0.017 -0.287 20.0 V 0.70 -0.13 o 691 1.49 Yes Yes
Lyapunov O C 2012-03-03.42499 1.000E-05 12:24:19.350 1.500E-01 0.500 F 0.167 0.123 -06° 40' 54.10" 1.000E-01 0.500 F -0.017 0.040 20.1 V 0.70 -0.02 o 691 0.26 Yes Yes
Lyapunov O C 2012-03-03.44165 1.000E-05 12:24:18.430 1.500E-01 0.500 F 0.167 -0.252 -06° 40' 53.40" 1.000E-01 0.500 F -0.017 0.160 20.3 V 0.70 0.18 o 691 0.60 Yes Yes
1995EK1 O C 2012-03-04.18409 1.000E-05 11:28:46.330 1.500E-01 0.500 F 0.162 -0.225 +07° 10' 21.50" 1.000E-01 0.500 F 0.168 -0.027 18.1 V 0.70 0.16 o 691 0.45 Yes Yes
1995EK1 O C 2012-03-04.20343 1.000E-05 11:28:43.640 1.500E-01 0.500 F 0.162 -0.229 +07° 10' 32.10" 1.000E-01 0.500 F 0.168 0.002 17.9 V 0.70 -0.03 o 691 0.46 Yes Yes
1995EK1 O C 2012-03-04.22281 1.000E-05 11:28:40.930 1.500E-01 0.500 F 0.162 -0.291 +07° 10' 42.70" 1.000E-01 0.500 F 0.168 0.015 18.0 V 0.70 0.07 o 691 0.58 Yes Yes
2011EB12 O C 2012-03-04.24998 1.000E-05 11:48:24.490 1.500E-01 0.500 F 0.211 0.447 +01° 53' 17.10" 1.000E-01 0.500 F 0.248 -0.175 19.2 V 0.70 0.28 o 691 0.98 Yes Yes
2012DY43 O C H 2012-03-04.25740 1.000E-05 12:07:39.570 1.500E-01 0.500 F 0.203 -1.960 +01° 09' 09.80" 1.000E-01 0.500 F 0.281 1.236 o 691 4.46 No No
2011EB12 O C 2012-03-04.26771 1.000E-05 11:48:15.910 1.500E-01 0.500 F 0.211 0.782 +01° 52' 04.60" 1.000E-01 0.500 F 0.248 0.515 19.2 V 0.70 0.28 o 691 1.91 Yes Yes
2012DY43 O C H 2012-03-04.27512 1.000E-05 12:07:33.820 1.500E-01 0.500 F 0.203 -1.737 +01° 10' 35.00" 1.000E-01 0.500 F 0.281 1.249 o 691 4.12 No No
2011EB12 O C 2012-03-04.28543 1.000E-05 11:48:07.230 1.500E-01 0.500 F 0.211 -0.185 +01° 50' 50.70" 1.000E-01 0.500 F 0.248 -0.198 19.3 V 0.70 0.38 o 691 0.55 Yes Yes
2012DY43 O C H 2012-03-04.29288 1.000E-05 12:07:28.150 1.500E-01 0.500 F 0.203 0.017 +01° 11' 58.00" 1.000E-01 0.500 F 0.281 -0.989 o 691 2.04 Yes No
1994CN2 O C 2012-03-04.30427 1.000E-05 12:23:49.610 1.500E-01 0.500 F 0.275 -0.703 +00° 07' 49.90" 1.000E-01 0.500 F 0.155 -0.138 19.7 V 0.70 0.16 o 691 1.43 Yes Yes
2012DO8 O C H 2012-03-04.31441 1.000E-05 12:25:03.840 1.500E-01 0.500 F 0.224 -0.817 -02° 57' 55.20" 1.000E-01 0.500 F 0.128 -0.709 o 691 2.20 Yes No
1994CN2 O C 2012-03-04.32198 1.000E-05 12:23:48.360 1.500E-01 0.500 F 0.275 -0.192 +00° 07' 58.90" 1.000E-01 0.500 F 0.155 -0.106 19.6 V 0.70 0.06 o 691 0.44 Yes Yes
2012DO8 O C H 2012-03-04.33213 1.000E-05 12:24:59.270 1.500E-01 0.500 F 0.224 -0.525 -02° 58' 09.50" 1.000E-01 0.500 F 0.128 -0.495 o 691 1.46 Yes No
1994CN2 O C 2012-03-04.33971 1.000E-05 12:23:47.070 1.500E-01 0.500 F 0.275 -0.224 +00° 08' 08.00" 1.000E-01 0.500 F 0.155 0.012 19.5 V 0.70 -0.04 o 691 0.45 Yes Yes
2012DO8 O C H 2012-03-04.34985 1.000E-05 12:24:54.680 1.500E-01 0.500 F 0.224 -0.355 -02° 58' 24.10" 1.000E-01 0.500 F 0.128 -0.605 o 691 1.42 Yes No
2006EV52 O C H 2012-03-04.41520 1.000E-05 13:15:07.850 1.500E-01 0.500 F 0.257 0.251 -00° 16' 25.70" 1.000E-01 0.500 F 0.110 -0.941 o 691 1.95 Yes No
2006EV52 O C H 2012-03-04.43290 1.000E-05 13:15:07.100 1.500E-01 0.500 F 0.257 0.369 -00° 16' 13.80" 1.000E-01 0.500 F 0.110 -0.494 o 691 1.24 Yes No
2006EV52 O C H 2012-03-04.45061 1.000E-05 13:15:06.340 1.500E-01 0.500 F 0.257 0.344 -00° 16' 02.50" 1.000E-01 0.500 F 0.110 -0.658 o 691 1.49 Yes No
2012DK61 O C 2012-03-05.16877 1.000E-05 11:26:55.740 1.500E-01 0.500 F 0.197 -0.084 -01° 52' 02.80" 1.000E-01 0.500 F 0.093 -0.305 19.5 V 0.70 0.03 o 691 0.64 Yes Yes
2012DK61 O C 2012-03-05.18649 1.000E-05 11:26:53.290 1.500E-01 0.500 F 0.197 -0.252 -01° 52' 12.20" 1.000E-01 0.500 F 0.093 0.067 19.6 V 0.70 0.13 o 691 0.52 Yes Yes
2012DK61 O C 2012-03-05.20422 1.000E-05 11:26:50.840 1.500E-01 0.500 F 0.197 -0.128 -01° 52' 21.90" 1.000E-01 0.500 F 0.093 0.138 19.7 V 0.70 0.23 o 691 0.38 Yes Yes
2011YV15 O C 2012-03-05.28740 1.000E-05 12:23:18.530 1.500E-01 0.500 F 0.061 -0.146 +03° 11' 24.90" 1.000E-01 0.500 F 0.225 0.106 16.1 V 0.70 0.06 o 691 0.36 Yes Yes
2011YV15 O C 2012-03-05.30513 1.000E-05 12:23:18.970 1.500E-01 0.500 F 0.061 -0.059 +03° 10' 58.10" 1.000E-01 0.500 F 0.225 0.034 16.1 V 0.70 0.06 o 691 0.14 Yes Yes
2011YV15 O C 2012-03-05.32285 1.000E-05 12:23:19.390 1.500E-01 0.500 F 0.061 -0.136 +03° 10' 31.50" 1.000E-01 0.500 F 0.225 0.162 16.1 V 0.70 0.06 o 691 0.43 Yes Yes
2007UR3 O C H 2012-03-05.40603 1.000E-05 13:06:59.470 1.500E-01 0.500 F 0.194 -0.092 -05° 28' 00.20" 1.000E-01 0.500 F 0.131 -0.820 o 691 1.66 Yes No
2000NG11 O C H 2012-03-05.40851 1.000E-05 13:15:14.970 1.500E-01 0.500 F 0.173 0.283 -06° 54' 07.20" 1.000E-01 0.500 F -0.014 -0.560 o 691 1.25 Yes No
2007UR3 O C H 2012-03-05.42374 1.000E-05 13:06:58.560 1.500E-01 0.500 F 0.194 0.191 -05° 27' 50.70" 1.000E-01 0.500 F 0.131 -0.700 o 691 1.46 Yes No
2000NG11 O C H 2012-03-05.42622 1.000E-05 13:15:14.150 1.500E-01 0.500 F 0.173 0.484 -06° 54' 02.00" 1.000E-01 0.500 F -0.014 -0.347 o 691 1.19 Yes No
2007UR3 O C H 2012-03-05.44145 1.000E-05 13:06:57.610 1.500E-01 0.500 F 0.194 -0.149 -05° 27' 41.40" 1.000E-01 0.500 F 0.131 -0.814 o 691 1.66 Yes No
2000NG11 O C H 2012-03-05.44392 1.000E-05 13:15:13.280 1.500E-01 0.500 F 0.173 -0.064 -06° 53' 57.10" 1.000E-01 0.500 F -0.014 -0.441 o 691 0.89 Yes No
1994CN2 O C 2012-03-12.21275 1.000E-05 12:13:46.730 1.500E-01 0.500 F 0.208 0.069 +01° 18' 53.30" 1.000E-01 0.500 F 0.140 0.002 o 691 0.14 Yes No
1994CN2 O C 2012-03-12.23047 1.000E-05 12:13:45.250 1.500E-01 0.500 F 0.208 0.053 +01° 19' 02.90" 1.000E-01 0.500 F 0.140 -0.436 o 691 0.88 Yes No
1994CN2 O C 2012-03-12.24822 1.000E-05 12:13:43.730 1.500E-01 0.500 F 0.208 -0.467 +01° 19' 13.40" 1.000E-01 0.500 F 0.140 0.009 o 691 0.94 Yes No
Amun O C 2012-03-13.44321 1.000E-05 13:56:43.700 1.500E-01 0.500 F 0.112 -0.145 -18° 50' 45.30" 1.000E-01 0.500 F -0.036 0.067 15.2 V 0.70 0.26 o 691 0.32 Yes Yes
2002CE O C 2012-03-13.44569 1.000E-05 14:09:30.960 1.500E-01 0.500 F 0.172 -1.644 -18° 18' 27.00" 1.000E-01 0.500 F 0.073 0.279 20.7 V 0.70 0.65 o 691 3.33 No Yes
Amun O C 2012-03-13.46095 1.000E-05 13:56:39.980 1.500E-01 0.500 F 0.112 -0.152 -18° 51' 39.10" 1.000E-01 0.500 F -0.036 -0.004 16.4 V 0.70 1.46 o 691 0.31 Yes Yes
2002CE O C 2012-03-13.46344 1.000E-05 14:09:30.040 1.500E-01 0.500 F 0.172 -0.314 -18° 18' 31.50" 1.000E-01 0.500 F 0.073 0.115 20.4 V 0.70 0.35 o 691 0.66 Yes Yes
Amun O C 2012-03-13.47872 1.000E-05 13:56:36.260 1.500E-01 0.500 F 0.112 -0.097 -18° 52' 32.80" 1.000E-01 0.500 F -0.036 0.039 15.2 V 0.70 0.26 o 691 0.21 Yes Yes
2002CE O C 2012-03-13.48121 1.000E-05 14:09:29.040 1.500E-01 0.500 F 0.172 -0.109 -18° 18' 36.00" 1.000E-01 0.500 F 0.073 -0.059 20.5 V 0.70 0.45 o 691 0.25 Yes Yes
2007UR3 O C 2012-03-14.22299 1.000E-05 12:58:59.660 1.500E-01 0.500 F 0.226 -0.529 -04° 01' 34.40" 1.000E-01 0.500 F 0.121 -0.338 20.6 V 0.70 0.49 o 691 1.26 Yes Yes
2007UR3 O C 2012-03-14.24070 1.000E-05 12:58:58.400 1.500E-01 0.500 F 0.226 -0.432 -04° 01' 22.80" 1.000E-01 0.500 F 0.121 0.215 20.3 V 0.70 0.19 o 691 0.97 Yes Yes
2007UR3 O C 2012-03-14.25841 1.000E-05 12:58:57.120 1.500E-01 0.500 F 0.226 -0.404 -04° 01' 11.80" 1.000E-01 0.500 F 0.121 0.151 20.2 V 0.70 0.10 o 691 0.87 Yes Yes
2011SO32 O C H 2012-03-14.29007 1.000E-05 13:12:33.860 1.500E-01 0.500 F 0.324 0.903 -15° 46' 00.60" 1.000E-01 0.500 F 0.018 -0.783 o 691 2.43 Yes No
2011SO32 O C H 2012-03-14.30784 1.000E-05 13:12:31.990 1.500E-01 0.500 F 0.324 0.165 -15° 45' 33.60" 1.000E-01 0.500 F 0.018 -0.845 o 691 1.73 Yes No
2002EM6 O C 2012-03-15.11283 1.000E-05 10:15:35.690 1.500E-01 0.500 F 0.051 0.175 +12° 50' 42.90" 1.000E-01 0.500 F 0.218 0.281 18.8 V 0.70 0.20 o 691 0.67 Yes Yes
2002EM6 O C 2012-03-15.15111 1.000E-05 10:15:32.130 1.500E-01 0.500 F 0.051 0.186 +12° 55' 32.20" 1.000E-01 0.500 F 0.218 -0.291 18.6 V 0.70 0.00 o 691 0.69 Yes Yes
2002EM6 O C 2012-03-15.17559 1.000E-05 10:15:29.810 1.500E-01 0.500 F 0.051 0.131 +12° 58' 37.90" 1.000E-01 0.500 F 0.218 0.247 18.6 V 0.70 0.00 o 691 0.56 Yes Yes
1994TW1 O C 2012-03-15.19884 1.000E-05 12:19:15.930 1.500E-01 0.500 F 0.058 -0.289 +04° 02' 15.90" 1.000E-01 0.500 F 0.228 -0.138 17.6 V 0.70 0.19 o 691 0.64 Yes Yes
1994TW1 O C 2012-03-15.21658 1.000E-05 12:19:13.840 1.500E-01 0.500 F 0.058 1.431 +04° 02' 10.30" 1.000E-01 0.500 F 0.228 -0.277 17.2 V 0.70 -0.21 o 691 2.92 Yes Yes
1994TW1 O C 2012-03-15.23429 1.000E-05 12:19:11.530 1.500E-01 0.500 F 0.058 -0.145 +04° 02' 05.00" 1.000E-01 0.500 F 0.228 -0.122 17.6 V 0.70 0.19 o 691 0.38 Yes Yes
2010LR33 O C 2012-03-15.26096 1.000E-05 13:09:29.220 1.500E-01 0.500 F 0.116 -0.332 -10° 36' 43.20" 1.000E-01 0.500 F 0.045 -0.164 20.1 V 0.70 -0.37 o 691 0.74 Yes Yes
2002CT11 O C 2012-03-15.26344 1.000E-05 13:16:07.210 1.500E-01 0.500 F 0.347 -0.549 -10° 54' 38.50" 1.000E-01 0.500 F 0.047 0.218 19.2 V 0.70 0.54 o 691 1.18 Yes Yes
2010LR33 O C 2012-03-15.27873 1.000E-05 13:09:28.010 1.500E-01 0.500 F 0.116 -0.064 -10° 36' 40.90" 1.000E-01 0.500 F 0.045 0.080 20.3 V 0.70 -0.17 o 691 0.21 Yes Yes
2002CT11 O C 2012-03-15.28121 1.000E-05 13:16:03.220 1.500E-01 0.500 F 0.347 -0.196 -10° 54' 51.90" 1.000E-01 0.500 F 0.047 0.056 19.0 V 0.70 0.34 o 691 0.41 Yes Yes
2010LR33 O C 2012-03-15.29649 1.000E-05 13:09:26.740 1.500E-01 0.500 F 0.116 -0.627 -10° 36' 38.80" 1.000E-01 0.500 F 0.045 0.108 20.4 V 0.70 -0.07 o 691 1.28 Yes Yes
2002CT11 O C 2012-03-15.29898 1.000E-05 13:15:59.170 1.500E-01 0.500 F 0.347 -0.643 -10° 55' 05.10" 1.000E-01 0.500 F 0.047 0.070 19.1 V 0.70 0.44 o 691 1.30 Yes Yes
1996FR3 O C 2012-03-15.42887 1.000E-05 14:42:52.760 1.500E-01 0.500 F 0.167 -0.275 -13° 15' 39.20" 1.000E-01 0.500 F 0.008 0.142 18.7 V 0.70 0.07 o 691 0.62 Yes Yes
1996FR3 O C 2012-03-15.44665 1.000E-05 14:42:50.590 1.500E-01 0.500 F 0.167 -0.211 -13° 15' 33.10" 1.000E-01 0.500 F 0.008 0.297 18.6 V 0.70 -0.03 o 691 0.73 Yes Yes
1996FR3 O C 2012-03-15.46443 1.000E-05 14:42:48.440 1.500E-01 0.500 F 0.167 0.153 -13° 15' 27.20" 1.000E-01 0.500 F 0.008 0.225 18.7 V 0.70 0.07 o 691 0.55 Yes Yes
2002KF4 O C H 2012-03-15.48530 1.000E-05 17:17:49.480 1.500E-01 0.500 F 0.068 0.246 +20° 21' 38.90" 1.000E-01 0.500 F 0.242 -0.349 o 691 0.86 Yes No
2002KF4 O C H 2012-03-15.49804 1.000E-05 17:17:51.020 1.500E-01 0.500 F 0.068 0.578 +20° 21' 36.30" 1.000E-01 0.500 F 0.242 -0.803 o 691 1.99 Yes No
2000YJ66 O C 2012-03-16.12574 1.000E-05 09:26:34.490 1.500E-01 0.500 F 0.070 -0.429 +11° 56' 58.90" 1.000E-01 0.500 F 0.238 0.129 20.2 V 0.70 -0.12 o 691 0.90 Yes Yes
2000YJ66 O C 2012-03-16.15346 1.000E-05 09:26:33.400 1.500E-01 0.500 F 0.070 -0.301 +11° 57' 03.50" 1.000E-01 0.500 F 0.238 0.161 20.3 V 0.70 -0.02 o 691 0.68 Yes Yes
2000YJ66 O C 2012-03-16.18118 1.000E-05 09:26:32.310 1.500E-01 0.500 F 0.070 -0.147 +11° 57' 07.70" 1.000E-01 0.500 F 0.238 -0.183 20.4 V 0.70 0.08 o 691 0.47 Yes Yes
2012FD1 O C 2012-03-16.22051 1.000E-05 11:45:18.660 1.500E-01 0.500 F 0.363 0.255 +01° 58' 29.30" 1.000E-01 0.500 F 0.340 -0.157 21.2 V 0.70 0.89 o 691 0.61 Yes Yes
1994CN2 O C 2012-03-16.22792 1.000E-05 12:08:10.950 1.500E-01 0.500 F 0.247 -0.396 +01° 57' 18.70" 1.000E-01 0.500 F 0.198 -0.042 19.3 V 0.70 0.21 o 691 0.80 Yes Yes
2012FD1 O C 2012-03-16.23821 1.000E-05 11:45:18.780 1.500E-01 0.500 F 0.363 -0.042 +01° 58' 55.80" 1.000E-01 0.500 F 0.340 0.172 20.3 V 0.70 -0.01 o 691 0.36 Yes Yes
1994CN2 O C 2012-03-16.24562 1.000E-05 12:08:09.420 1.500E-01 0.500 F 0.247 -0.096 +01° 57' 29.00" 1.000E-01 0.500 F 0.198 -0.031 19.4 V 0.70 0.31 o 691 0.20 Yes Yes
2012FD1 O C 2012-03-16.25591 1.000E-05 11:45:18.900 1.500E-01 0.500 F 0.363 -0.170 +01° 59' 21.40" 1.000E-01 0.500 F 0.340 -0.412 20.6 V 0.70 0.29 o 691 0.90 Yes Yes
1994CN2 O C 2012-03-16.26335 1.000E-05 12:08:07.890 1.500E-01 0.500 F 0.247 0.288 +01° 57' 39.10" 1.000E-01 0.500 F 0.198 -0.236 19.4 V 0.70 0.31 o 691 0.75 Yes Yes
2005CJ O C 2012-03-16.33842 1.000E-05 13:41:23.830 1.500E-01 0.500 F 0.152 -0.162 -11° 00' 35.50" 1.000E-01 0.500 F 0.111 0.051 21.1 V 0.70 0.22 o 691 0.34 Yes Yes
2005CJ O C 2012-03-16.35617 1.000E-05 13:41:21.590 1.500E-01 0.500 F 0.152 0.213 -11° 00' 25.20" 1.000E-01 0.500 F 0.111 -0.169 21.0 V 0.70 0.12 o 691 0.55 Yes Yes
2005CJ O C 2012-03-16.37721 1.000E-05 13:41:18.850 1.500E-01 0.500 F 0.152 -0.530 -11° 00' 12.10" 1.000E-01 0.500 F 0.111 0.415 20.6 V 0.70 -0.28 o 691 1.35 Yes Yes
2004QZ2 O C H 2012-03-23.21853 1.000E-05 12:14:49.140 1.500E-01 0.500 F 0.231 -0.671 -02° 45' 22.30" 1.000E-01 0.500 F 0.120 -0.118 o 691 1.37 Yes No
2004QZ2 O C H 2012-03-23.23625 1.000E-05 12:14:47.800 1.500E-01 0.500 F 0.231 -0.443 -02° 45' 13.40" 1.000E-01 0.500 F 0.120 -0.327 o 691 1.11 Yes No
2004FE31 O C 2012-03-23.31223 1.000E-05 13:59:38.720 1.500E-01 0.500 F 0.271 -1.302 -13° 06' 13.60" 1.000E-01 0.500 F 0.117 0.318 20.5 V 0.70 -0.17 o 691 2.68 Yes Yes
2012FL35 O C 2012-03-23.31984 1.000E-05 14:00:02.640 1.500E-01 0.500 F 0.238 -0.478 -15° 37' 18.50" 1.000E-01 0.500 F 0.101 0.652 21.0 V 0.70 -0.01 o 691 1.63 Yes Yes
2004FE31 O C 2012-03-23.33000 1.000E-05 13:59:37.790 1.500E-01 0.500 F 0.271 -0.365 -13° 06' 02.30" 1.000E-01 0.500 F 0.117 -0.009 20.7 V 0.70 0.03 o 691 0.73 Yes Yes
2012FL35 O C 2012-03-23.33762 1.000E-05 14:00:00.790 1.500E-01 0.500 F 0.238 0.048 -15° 37' 27.90" 1.000E-01 0.500 F 0.101 0.140 21.2 V 0.70 0.19 o 691 0.30 Yes Yes
2004FE31 O C 2012-03-23.34778 1.000E-05 13:59:36.820 1.500E-01 0.500 F 0.271 0.037 -13° 05' 50.60" 1.000E-01 0.500 F 0.117 0.035 20.5 V 0.70 -0.17 o 691 0.10 Yes Yes
2012FL35 O C 2012-03-23.35538 1.000E-05 13:59:58.860 1.500E-01 0.500 F 0.238 -0.537 -15° 37' 37.00" 1.000E-01 0.500 F 0.101 -0.114 20.7 V 0.70 -0.31 o 691 1.11 Yes Yes
1996FR3 O C 2012-03-23.36658 1.000E-05 14:26:04.140 1.500E-01 0.500 F 0.216 -0.202 -12° 24' 42.90" 1.000E-01 0.500 F 0.034 -0.070 18.6 V 0.70 0.04 o 691 0.43 Yes Yes

[1-200] [201-400] [401-600] [601-800] [801-1000] [1001-1200] [1201-1400] [1401-1600] [1601-1800] [1801-2000] [2001-2200] [2201-2400] [2401-2600] [2601-2800] [2801-3000] [3001-3200] [3201-3400] [3401-3600] [3601-3800] [3801-4000] [4001-4200] [4201-4400] [4401-4600] [4601-4800] [4801-5000] [5001-5200] [5201-5400] [5401-5600] [5601-5800] [5801-6000] [6001-6200] [6201-6400] [6401-6600] [6601-6800] [6801-7000] [7001-7200] [7201-7400] [7401-7600] [7601-7800] [7801-8000] [8001-8200] [8201-8400] [8401-8600] [8601-8800] [8801-9000] [9001-9200] [9201-9400] [9401-9600] [9601-9800] [9801-10000] [10001-10200] [10201-10400] [10401-10600] [10601-10800] [10801-11000] [11001-11200] [11201-11400] [11401-11600] [11601-11800] [11801-12000] [12001-12200] [12201-12400] [12401-12600] [12601-12800] [12801-13000] [13001-13200] [13201-13400] [13401-13600] [13601-13800] [13801-14000] [14001-14200] [14201-14400] [14401-14600] [14601-14800] [14801-15000] [15001-15200] [15201-15400] [15401-15600] [15601-15800] [15801-16000] [16001-16200] [16201-16400] [16401-16600] [16601-16800] [16801-17000] [17001-17200] [17201-17400] [17401-17600] [17601-17800] [17801-18000] [18001-18200] [18201-18400] [18401-18600] [18601-18800] [18801-19000] [19001-19200] [19201-19400] [19401-19600] [19601-19800] [19801-20000] [20001-20200] [20201-20400] [20401-20600] [20601-20800] [20801-21000] [21001-21200] [21201-21400] [21401-21600] [21601-21800] [21801-22000] [22001-22200] [22201-22400] [22401-22600] [22601-22800] [22801-23000] [23001-23200] [23201-23400] [23401-23600] [23601-23800] [23801-24000] [24001-24200] [24201-24400] [24401-24600] [24601-24800] [24801-25000] [25001-25200] [25201-25400] [25401-25600] [25601-25800] [25801-26000] [26001-26200] [26201-26400] [26401-26600] [26601-26800] [26801-27000] [27001-27200] [27201-27400] [27401-27600] [27601-27800] [27801-28000] [28001-28200] [28201-28400] [28401-28600] [28601-28800] [28801-29000] [29001-29200] [29201-29400] [29401-29600] [29601-29800] [29801-30000] [30001-30200] [30201-30400] [30401-30600] [30601-30800] [30801-31000] [31001-31200] [31201-31400] [31401-31600] [31601-31800] [31801-32000] [32001-32200] [32201-32400] [32401-32600] [32601-32800] [32801-33000] [33001-33200] [33201-33400] [33401-33600] [33601-33800] [33801-34000] [34001-34200] [34201-34400] [34401-34600] [34601-34800] [34801-35000] [35001-35200] [35201-35400] [35401-35600] [35601-35800] [35801-36000] [36001-36200] [36201-36400] [36401-36600] [36601-36800] [36801-37000] [37001-37200] [37201-37400] [37401-37600] [37601-37800] [37801-38000] [38001-38200] [38201-38400] [38401-38600] [38601-38800] [38801-39000] [39001-39200] [39201-39400] [39401-39600] [39601-39800] [39801-40000] [40001-40200] [40201-40400] [40401-40600] [40601-40800] [40801-41000] [41001-41200] [41201-41400] [41401-41600] [41601-41800] [41801-42000] [42001-42200] [42201-42400] [42401-42600] [42601-42800] [42801-43000] [43001-43200] [43201-43400] [43401-43600] [43601-43800] [43801-44000] [44001-44200] [44201-44400] [44401-44600] [44601-44800] [44801-45000] [45001-45200] [45201-45400] [45401-45600] [45601-45800] [45801-46000] [46001-46200] [46201-46400] [46401-46600] [46601-46800] [46801-47000] [47001-47200] [47201-47400] [47401-47600] [47601-47800] [47801-48000] [48001-48200] [48201-48400] [48401-48600] [48601-48800] [48801-49000] [49001-49200] [49201-49400] [49401-49600] [49601-49800] [49801-50000] [50001-50200] [50201-50388]